Time;durP1;ratioP1;P1;durP2;ratioP2;P2;SDS_P1;SDS_P2;PMS_P1;PMS_P2;Temp;Humidity;BMP_temperature;BMP_pressure;BME280_temperature;BME280_humidity;BME280_pressure;Samples;Min_cycle;Max_cycle;Signal;HPM_P1;HPM_P2
2024/01/09 00:01:02;;;;;;;15.60;7.17;;;-2.70;1.00;;;;;;5040725;28;20185;-75
2024/01/09 00:03:28;;;;;;;14.87;7.70;;;-2.00;1.00;;;;;;5033803;28;20537;-77
2024/01/09 00:05:53;;;;;;;16.27;7.20;;;-1.90;1.00;;;;;;5034987;28;20763;-75
2024/01/09 00:08:19;;;;;;;13.63;7.13;;;-1.90;1.00;;;;;;5012969;28;20206;-76
2024/01/09 00:10:44;;;;;;;17.90;6.77;;;-1.90;1.00;;;;;;5022193;28;20211;-77
2024/01/09 00:13:10;;;;;;;16.30;8.13;;;-1.90;1.00;;;;;;5038045;28;20687;-76
2024/01/09 00:15:35;;;;;;;15.00;7.70;;;-2.60;1.00;;;;;;5025021;28;20190;-75
2024/01/09 00:18:01;;;;;;;16.33;8.17;;;-2.30;1.00;;;;;;5035251;28;20201;-76
2024/01/09 00:20:26;;;;;;;20.03;9.30;;;-2.20;1.00;;;;;;5020347;28;20185;-75
2024/01/09 00:22:52;;;;;;;12.50;7.90;;;-2.70;1.00;;;;;;5037322;28;20898;-76
2024/01/09 00:25:18;;;;;;;15.13;7.50;;;-2.40;1.00;;;;;;5014669;28;20193;-77
2024/01/09 00:27:44;;;;;;;16.77;7.90;;;-2.40;1.00;;;;;;5040967;28;20177;-76
2024/01/09 00:30:10;;;;;;;15.43;7.90;;;-2.70;1.00;;;;;;5027368;28;20496;-73
2024/01/09 00:32:36;;;;;;;14.60;7.27;;;-2.20;1.00;;;;;;5020227;28;20475;-76
2024/01/09 00:35:02;;;;;;;11.97;6.67;;;-2.10;1.00;;;;;;5030927;28;20417;-76
2024/01/09 00:37:28;;;;;;;14.70;7.80;;;-2.20;1.00;;;;;;5020404;28;20436;-76
2024/01/09 00:39:53;;;;;;;15.67;8.10;;;-2.20;1.00;;;;;;5032894;28;20201;-75
2024/01/09 00:42:19;;;;;;;14.90;7.20;;;-2.40;1.00;;;;;;5025012;28;20193;-76
2024/01/09 00:44:44;;;;;;;14.73;6.73;;;-2.30;1.00;;;;;;5024427;28;20193;-75
2024/01/09 00:47:10;;;;;;;14.53;6.83;;;-2.00;1.00;;;;;;5014058;28;20175;-77
2024/01/09 00:49:36;;;;;;;15.97;7.00;;;-2.50;1.00;;;;;;5014801;28;20213;-75
2024/01/09 00:52:02;;;;;;;14.30;7.27;;;-2.50;1.00;;;;;;5034018;28;20339;-76
2024/01/09 00:54:28;;;;;;;17.30;8.00;;;-2.80;1.00;;;;;;5046080;28;20731;-76
2024/01/09 00:56:54;;;;;;;14.83;7.40;;;-2.40;1.00;;;;;;5040762;28;20526;-76
2024/01/09 00:59:19;;;;;;;16.17;8.27;;;-2.50;1.00;;;;;;5027822;28;20224;-76
2024/01/09 01:01:51;;;;;;;13.90;7.30;;;-2.10;1.00;;;;;;5018677;28;20268;-76
2024/01/09 01:04:17;;;;;;;12.63;7.10;;;-2.10;1.00;;;;;;5025210;28;20200;-76
2024/01/09 01:06:44;;;;;;;16.30;7.53;;;-2.50;1.00;;;;;;5030023;28;20484;-77
2024/01/09 01:09:10;;;;;;;11.77;6.70;;;-2.40;1.00;;;;;;5017056;28;20881;-76
2024/01/09 01:11:36;;;;;;;13.80;7.17;;;-2.40;1.00;;;;;;5025298;28;20428;-77
2024/01/09 01:14:02;;;;;;;13.33;6.80;;;-2.10;1.00;;;;;;5020213;28;20248;-75
2024/01/09 01:16:28;;;;;;;14.97;6.73;;;-2.50;1.00;;;;;;5023050;28;20508;-76
2024/01/09 01:18:53;;;;;;;14.23;6.67;;;-2.50;1.00;;;;;;5013904;28;20468;-77
2024/01/09 01:21:19;;;;;;;13.57;7.00;;;-2.60;1.00;;;;;;5014267;28;20186;-76
2024/01/09 01:23:44;;;;;;;14.30;7.60;;;-3.00;1.00;;;;;;5032472;28;20186;-77
2024/01/09 01:26:10;;;;;;;12.70;7.07;;;-2.60;1.00;;;;;;5017850;28;20202;-76
2024/01/09 01:28:35;;;;;;;13.40;6.83;;;-2.80;1.00;;;;;;5019094;28;20204;-76
2024/01/09 01:31:02;;;;;;;17.47;7.80;;;-2.80;1.00;;;;;;5030904;28;20180;-75
2024/01/09 01:33:28;;;;;;;15.67;7.97;;;-2.70;1.00;;;;;;5036316;28;20182;-77
2024/01/09 01:35:54;;;;;;;17.50;8.07;;;-2.40;1.00;;;;;;5021940;28;20509;-76
2024/01/09 01:38:20;;;;;;;15.13;7.30;;;-2.60;1.00;;;;;;5021558;28;20206;-75
2024/01/09 01:40:45;;;;;;;15.20;7.50;;;-2.20;1.00;;;;;;5047174;28;20963;-76
2024/01/09 01:43:11;;;;;;;16.57;7.90;;;-2.80;1.00;;;;;;5022717;28;20611;-76
2024/01/09 01:45:36;;;;;;;15.73;7.60;;;-2.60;1.00;;;;;;5009909;28;20248;-76
2024/01/09 01:48:03;;;;;;;15.57;7.50;;;-2.60;1.00;;;;;;5053202;28;20224;-76
2024/01/09 01:50:31;;;;;;;14.67;7.60;;;-2.60;1.00;;;;;;5018977;28;20703;-76
2024/01/09 01:52:59;;;;;;;16.97;8.00;;;-1.80;1.00;;;;;;5020992;28;20427;-76
2024/01/09 01:55:26;;;;;;;14.00;7.17;;;-3.10;1.00;;;;;;5028455;28;20417;-74
2024/01/09 01:57:54;;;;;;;20.27;8.27;;;-2.60;1.00;;;;;;5022960;28;20461;-75
2024/01/09 02:00:21;;;;;;;11.23;6.67;;;-2.60;1.00;;;;;;5036790;28;20435;-77
2024/01/09 02:02:48;;;;;;;14.00;6.77;;;-2.50;1.00;;;;;;5028855;28;20480;-75
2024/01/09 02:05:20;;;;;;;15.83;6.97;;;-2.60;1.00;;;;;;5015311;28;20795;-75
2024/01/09 02:07:46;;;;;;;17.30;8.27;;;-2.50;1.00;;;;;;5018942;28;20970;-77
2024/01/09 02:10:12;;;;;;;14.00;7.30;;;-3.10;1.00;;;;;;5024435;28;20467;-76
2024/01/09 02:12:38;;;;;;;14.80;7.83;;;-2.20;1.00;;;;;;5026323;28;20438;-77
2024/01/09 02:15:04;;;;;;;10.93;6.23;;;-2.20;1.00;;;;;;5035535;28;20280;-77
2024/01/09 02:17:31;;;;;;;15.23;7.77;;;-2.50;1.00;;;;;;5027296;28;20197;-76
2024/01/09 02:19:59;;;;;;;15.40;7.87;;;-2.50;1.00;;;;;;5026834;28;20448;-76
2024/01/09 02:22:24;;;;;;;15.20;7.27;;;-2.60;1.00;;;;;;5015832;28;20866;-75
2024/01/09 02:24:50;;;;;;;14.30;7.07;;;-2.60;1.00;;;;;;5022595;28;20463;-75
2024/01/09 02:27:30;;;;;;;14.57;7.00;;;-2.20;1.00;;;;;;5034089;28;20280;-75
2024/01/09 02:29:56;;;;;;;13.00;6.47;;;-2.50;1.00;;;;;;5021965;28;20212;-75
2024/01/09 02:32:22;;;;;;;16.73;7.17;;;-2.50;1.00;;;;;;5028821;28;20605;-73
2024/01/09 02:34:48;;;;;;;15.30;7.30;;;-2.60;1.00;;;;;;5016248;28;21010;-75
2024/01/09 02:37:14;;;;;;;15.40;6.80;;;-2.60;1.00;;;;;;5023537;28;20182;-73
2024/01/09 02:39:40;;;;;;;12.10;7.23;;;-2.50;1.00;;;;;;5015021;28;21045;-76
2024/01/09 02:42:05;;;;;;;14.10;6.77;;;-2.40;1.00;;;;;;5018208;28;20194;-75
2024/01/09 02:44:31;;;;;;;11.77;6.90;;;-3.00;1.00;;;;;;5030070;28;20627;-77
2024/01/09 02:46:56;;;;;;;15.73;6.97;;;-2.60;1.00;;;;;;5039838;28;20264;-76
2024/01/09 02:49:22;;;;;;;13.40;7.57;;;-2.60;1.00;;;;;;5020955;28;20213;-76
2024/01/09 02:51:47;;;;;;;18.67;7.80;;;-2.50;1.00;;;;;;5013114;28;20240;-76
2024/01/09 02:54:13;;;;;;;13.07;7.10;;;-2.60;1.00;;;;;;5017855;28;20260;-76
2024/01/09 02:56:39;;;;;;;18.30;6.90;;;-2.20;1.00;;;;;;5033126;28;20575;-77
2024/01/09 02:59:04;;;;;;;10.70;7.03;;;-2.70;1.00;;;;;;5035119;28;20217;-75
2024/01/09 03:01:30;;;;;;;12.53;6.27;;;-2.60;1.00;;;;;;5030403;28;20421;-77
2024/01/09 03:03:55;;;;;;;15.10;6.87;;;-2.60;1.00;;;;;;5035407;28;20706;-75
2024/01/09 03:06:21;;;;;;;12.67;7.00;;;-2.90;1.00;;;;;;5027054;28;20707;-77
2024/01/09 03:08:48;;;;;;;12.10;6.67;;;-2.50;1.00;;;;;;5021092;28;20327;-75
2024/01/09 03:11:14;;;;;;;12.90;7.10;;;-2.50;1.00;;;;;;5028244;28;20646;-76
2024/01/09 03:13:40;;;;;;;13.77;6.37;;;-2.30;1.00;;;;;;5032908;28;20452;-77
2024/01/09 03:16:12;;;;;;;14.10;6.93;;;-2.60;1.00;;;;;;5037576;28;20447;-75
2024/01/09 03:18:39;;;;;;;12.07;6.47;;;-2.60;1.00;;;;;;5032364;28;20608;-75
2024/01/09 03:21:04;;;;;;;12.43;6.40;;;-2.60;1.00;;;;;;5030756;28;20432;-76
2024/01/09 03:23:32;;;;;;;19.57;6.30;;;-2.70;1.00;;;;;;5023536;28;20544;-76
2024/01/09 03:25:57;;;;;;;16.20;6.80;;;-2.70;1.00;;;;;;5011824;28;20194;-76
2024/01/09 03:28:24;;;;;;;16.67;6.07;;;-2.70;1.00;;;;;;5022204;28;20820;-77
2024/01/09 03:30:50;;;;;;;14.57;6.87;;;-2.80;1.00;;;;;;5016502;28;20185;-76
2024/01/09 03:33:15;;;;;;;16.10;6.30;;;-2.40;1.00;;;;;;5033520;28;20430;-76
2024/01/09 03:35:41;;;;;;;14.63;6.87;;;-2.70;1.00;;;;;;5026153;28;20190;-75
2024/01/09 03:38:06;;;;;;;13.30;5.77;;;-2.70;1.00;;;;;;5028405;28;20228;-76
2024/01/09 03:40:35;;;;;;;12.00;6.47;;;-2.40;1.00;;;;;;5039313;28;20182;-76
2024/01/09 03:43:00;;;;;;;10.60;6.30;;;-2.40;1.00;;;;;;5029501;28;20177;-75
2024/01/09 03:45:26;;;;;;;10.37;5.50;;;-3.40;1.00;;;;;;5032843;28;20527;-76
2024/01/09 03:47:51;;;;;;;13.73;6.30;;;-2.90;1.00;;;;;;5034606;28;20233;-75
2024/01/09 03:50:17;;;;;;;15.20;6.80;;;-2.60;1.00;;;;;;5018745;28;20206;-76
2024/01/09 03:52:42;;;;;;;19.80;7.50;;;-2.90;1.00;;;;;;5033370;28;20190;-76
2024/01/09 03:55:08;;;;;;;15.63;7.27;;;-2.80;1.00;;;;;;5022128;28;20655;-76
2024/01/09 03:57:33;;;;;;;15.27;7.67;;;-3.10;1.00;;;;;;5027488;28;20264;-75
2024/01/09 03:59:59;;;;;;;13.63;6.40;;;-3.00;1.00;;;;;;5033576;28;20649;-76
2024/01/09 04:02:26;;;;;;;17.73;6.70;;;-3.40;1.00;;;;;;5024820;28;20591;-76
2024/01/09 04:04:52;;;;;;;15.60;7.07;;;-3.10;1.00;;;;;;5021688;28;20178;-75
2024/01/09 04:07:17;;;;;;;16.50;7.93;;;-3.10;1.00;;;;;;5015099;28;20789;-76
2024/01/09 04:09:43;;;;;;;17.00;6.97;;;-3.20;1.00;;;;;;5024945;28;20217;-75
2024/01/09 04:12:08;;;;;;;15.33;7.70;;;-3.10;1.00;;;;;;5024440;28;20274;-74
2024/01/09 04:14:34;;;;;;;13.30;7.33;;;-3.00;1.00;;;;;;5021898;28;20201;-76
2024/01/09 04:16:59;;;;;;;13.87;6.17;;;-3.10;1.00;;;;;;5034083;28;20588;-76
2024/01/09 04:19:25;;;;;;;13.60;6.70;;;-3.30;1.00;;;;;;5045876;28;20232;-75
2024/01/09 04:21:50;;;;;;;13.27;6.40;;;-3.70;1.00;;;;;;5016876;28;20193;-76
2024/01/09 04:24:16;;;;;;;16.43;6.77;;;-2.80;1.00;;;;;;5036328;28;20187;-75
2024/01/09 04:26:41;;;;;;;9.43;5.40;;;-3.10;1.00;;;;;;5033396;28;20194;-75
2024/01/09 04:29:07;;;;;;;12.00;5.50;;;-3.10;1.00;;;;;;5020869;28;20292;-75
2024/01/09 04:31:32;;;;;;;15.93;5.50;;;-3.00;1.00;;;;;;5031766;28;20184;-73
2024/01/09 04:33:58;;;;;;;10.60;5.60;;;-3.20;1.00;;;;;;5040430;28;20661;-75
2024/01/09 04:36:23;;;;;;;11.03;6.50;;;-2.60;1.00;;;;;;5042681;28;20256;-76
2024/01/09 04:38:49;;;;;;;11.07;6.47;;;-2.80;1.00;;;;;;5031413;28;20210;-76
2024/01/09 04:41:18;;;;;;;12.60;6.03;;;-3.30;1.00;;;;;;5037439;28;20664;-74
2024/01/09 04:43:45;;;;;;;10.90;5.97;;;-2.70;1.00;;;;;;5014970;28;20750;-75
2024/01/09 04:46:11;;;;;;;14.90;6.17;;;-2.90;1.00;;;;;;5023243;28;20438;-76
2024/01/09 04:48:36;;;;;;;12.83;6.50;;;-2.70;1.00;;;;;;5037900;28;20455;-75
2024/01/09 04:51:02;;;;;;;10.53;6.10;;;-2.70;1.00;;;;;;5029746;28;20641;-74
2024/01/09 04:53:27;;;;;;;15.47;6.80;;;-3.10;1.00;;;;;;5025738;28;20193;-75
2024/01/09 04:55:53;;;;;;;11.27;5.60;;;-2.70;1.00;;;;;;5036074;28;20213;-76
2024/01/09 04:58:19;;;;;;;12.23;6.47;;;-2.60;1.00;;;;;;5022097;28;20603;-77
2024/01/09 05:00:44;;;;;;;14.33;5.90;;;-2.90;1.00;;;;;;5028597;28;20190;-75
2024/01/09 05:03:10;;;;;;;12.20;6.00;;;-2.60;1.00;;;;;;5015165;28;20179;-76
2024/01/09 05:05:36;;;;;;;13.17;6.20;;;-2.80;1.00;;;;;;5009682;28;20186;-73
2024/01/09 05:08:01;;;;;;;15.73;6.87;;;-2.60;1.00;;;;;;5031369;28;20216;-75
2024/01/09 05:10:30;;;;;;;14.60;6.77;;;-3.20;1.00;;;;;;5021931;28;20461;-75
2024/01/09 05:12:55;;;;;;;13.77;7.00;;;-3.00;1.00;;;;;;5022328;28;20190;-75
2024/01/09 05:15:21;;;;;;;14.90;6.93;;;-2.70;1.00;;;;;;5037396;28;20427;-76
2024/01/09 05:17:47;;;;;;;11.10;5.87;;;-2.40;1.00;;;;;;5019865;28;20623;-76
2024/01/09 05:20:12;;;;;;;15.93;5.93;;;-2.40;1.00;;;;;;5030894;28;20189;-76
2024/01/09 05:22:38;;;;;;;12.93;6.07;;;-2.90;1.00;;;;;;5036299;28;20184;-75
2024/01/09 05:25:04;;;;;;;12.27;6.00;;;-2.80;1.00;;;;;;5029598;28;20196;-75
2024/01/09 05:27:30;;;;;;;10.53;5.80;;;-2.90;1.00;;;;;;5027912;28;20267;-75
2024/01/09 05:29:55;;;;;;;14.23;6.97;;;-2.80;1.00;;;;;;5036774;28;20695;-75
2024/01/09 05:32:21;;;;;;;11.20;5.87;;;-2.60;1.00;;;;;;5032525;28;20180;-76
2024/01/09 05:34:47;;;;;;;12.43;5.87;;;-2.60;1.00;;;;;;5022561;28;20712;-76
2024/01/09 05:37:12;;;;;;;10.57;6.20;;;-2.40;1.00;;;;;;5022637;28;20471;-76
2024/01/09 05:39:38;;;;;;;11.13;6.20;;;-2.90;1.00;;;;;;5017008;28;20202;-72
2024/01/09 05:42:04;;;;;;;10.90;6.30;;;-3.10;1.00;;;;;;5032783;28;20751;-76
2024/01/09 05:44:29;;;;;;;14.77;6.70;;;-2.80;1.00;;;;;;5036755;28;20196;-77
2024/01/09 05:46:55;;;;;;;11.93;5.90;;;-2.60;1.00;;;;;;5012579;28;20186;-75
2024/01/09 05:49:20;;;;;;;12.07;6.63;;;-2.90;1.00;;;;;;5026487;28;20215;-76
2024/01/09 05:51:46;;;;;;;12.50;6.73;;;-2.30;1.00;;;;;;5025371;28;20587;-76
2024/01/09 05:54:11;;;;;;;8.80;5.60;;;-2.80;1.00;;;;;;5030059;28;20272;-76
2024/01/09 05:56:37;;;;;;;14.10;6.27;;;-2.80;1.00;;;;;;5022580;28;20189;-75
2024/01/09 05:59:03;;;;;;;16.30;6.43;;;-2.90;1.00;;;;;;5032555;28;20572;-76
2024/01/09 06:01:28;;;;;;;14.13;6.87;;;-2.40;1.00;;;;;;5035431;28;20197;-74
2024/01/09 06:03:54;;;;;;;15.40;6.77;;;-2.60;1.00;;;;;;5019369;28;20428;-75
2024/01/09 06:06:19;;;;;;;12.30;5.97;;;-2.80;1.00;;;;;;5022849;28;20492;-75
2024/01/09 06:08:45;;;;;;;12.90;6.40;;;-2.80;1.00;;;;;;5021073;28;20304;-75
2024/01/09 06:11:11;;;;;;;13.93;5.80;;;-2.90;1.00;;;;;;5035711;28;20267;-76
2024/01/09 06:13:36;;;;;;;11.37;6.07;;;-2.80;1.00;;;;;;5025800;28;20519;-76
2024/01/09 06:16:02;;;;;;;14.80;6.93;;;-2.50;1.00;;;;;;5029078;28;20268;-75
2024/01/09 06:18:28;;;;;;;15.00;6.83;;;-2.70;1.00;;;;;;5031244;28;20251;-76
2024/01/09 06:20:53;;;;;;;13.50;6.43;;;-2.50;1.00;;;;;;5024386;28;20189;-75
2024/01/09 06:23:19;;;;;;;13.83;6.40;;;-2.80;1.00;;;;;;5036129;28;20261;-75
2024/01/09 06:25:44;;;;;;;12.17;6.40;;;-2.60;1.00;;;;;;5017363;28;20193;-74
2024/01/09 06:28:10;;;;;;;9.77;6.03;;;-2.80;1.00;;;;;;5034784;28;20276;-76
2024/01/09 06:30:35;;;;;;;13.70;6.70;;;-2.70;1.00;;;;;;5022399;28;20956;-76
2024/01/09 06:33:01;;;;;;;10.30;6.00;;;-2.50;1.00;;;;;;5015271;28;20209;-75
2024/01/09 06:35:27;;;;;;;15.97;5.93;;;-3.30;1.00;;;;;;5015710;28;20236;-73
2024/01/09 06:37:52;;;;;;;15.97;6.93;;;-2.90;1.00;;;;;;5021243;28;20190;-75
2024/01/09 06:40:19;;;;;;;11.37;6.47;;;-3.30;1.00;;;;;;5037664;28;20259;-76
2024/01/09 06:42:48;;;;;;;14.00;6.60;;;-2.40;1.00;;;;;;5035287;28;20682;-73
2024/01/09 06:45:14;;;;;;;11.10;6.20;;;-2.80;1.00;;;;;;5013348;28;20428;-76
2024/01/09 06:47:41;;;;;;;15.20;7.30;;;-2.80;1.00;;;;;;5008054;28;20425;-75
2024/01/09 06:50:06;;;;;;;14.40;7.23;;;-3.10;1.00;;;;;;5024311;28;20293;-77
2024/01/09 06:52:32;;;;;;;11.17;6.87;;;-2.70;1.00;;;;;;5030429;28;20540;-75
2024/01/09 06:54:57;;;;;;;14.20;6.57;;;-3.10;1.00;;;;;;5030095;28;20261;-76
2024/01/09 06:57:24;;;;;;;17.47;7.20;;;-3.10;1.00;;;;;;5025734;28;20593;-75
2024/01/09 06:59:50;;;;;;;14.97;6.57;;;-2.80;1.00;;;;;;5026900;28;20263;-75
2024/01/09 07:02:15;;;;;;;14.90;5.90;;;-2.60;1.00;;;;;;5032959;28;20416;-75
2024/01/09 07:04:41;;;;;;;11.47;5.63;;;-2.70;1.00;;;;;;5017083;28;20190;-76
2024/01/09 07:07:06;;;;;;;13.47;6.27;;;-2.40;1.00;;;;;;5037924;28;20215;-72
2024/01/09 07:09:33;;;;;;;15.40;6.10;;;-2.60;1.00;;;;;;5031517;28;20209;-75
2024/01/09 07:11:58;;;;;;;14.47;6.30;;;-2.70;1.00;;;;;;5032576;28;20179;-74
2024/01/09 07:14:24;;;;;;;13.90;6.53;;;-2.40;1.00;;;;;;5021874;28;20946;-74
2024/01/09 07:16:49;;;;;;;12.57;7.00;;;-2.70;1.00;;;;;;5021366;28;20183;-73
2024/01/09 07:19:15;;;;;;;13.60;7.60;;;-2.70;1.00;;;;;;5020653;28;20208;-73
2024/01/09 07:21:40;;;;;;;15.40;7.60;;;-2.40;1.00;;;;;;5022377;28;20200;-74
2024/01/09 07:24:06;;;;;;;13.47;6.97;;;-2.70;1.00;;;;;;5027188;28;20725;-73
2024/01/09 07:26:37;;;;;;;15.47;7.07;;;-2.70;1.00;;;;;;5022323;28;20190;-73
2024/01/09 07:29:02;;;;;;;14.00;6.33;;;-2.60;1.00;;;;;;5033335;28;20210;-73
2024/01/09 07:31:28;;;;;;;14.00;5.90;;;-0.90;1.00;;;;;;5035146;28;20952;-73
2024/01/09 07:33:55;;;;;;;11.40;6.23;;;-2.60;1.00;;;;;;5036266;28;20188;-74
2024/01/09 07:36:21;;;;;;;12.37;6.57;;;-2.60;1.00;;;;;;5033801;28;20177;-74
2024/01/09 07:38:46;;;;;;;17.17;6.60;;;-2.50;1.00;;;;;;5028959;28;20467;-73
2024/01/09 07:41:12;;;;;;;12.43;6.90;;;-2.90;1.00;;;;;;5038067;28;20182;-73
2024/01/09 07:43:37;;;;;;;13.47;6.33;;;-2.40;1.00;;;;;;5019208;28;20764;-73
2024/01/09 07:46:03;;;;;;;14.80;6.30;;;-2.50;1.00;;;;;;5026595;28;20687;-74
2024/01/09 07:48:29;;;;;;;15.10;7.07;;;-2.60;1.00;;;;;;5026664;28;20636;-74
2024/01/09 07:50:56;;;;;;;16.30;6.77;;;-2.30;1.00;;;;;;5028499;28;20260;-74
2024/01/09 07:53:21;;;;;;;12.53;6.13;;;-2.30;1.00;;;;;;5030238;28;20220;-73
2024/01/09 07:55:47;;;;;;;12.43;6.47;;;-2.70;1.00;;;;;;5030707;28;20460;-74
2024/01/09 07:58:13;;;;;;;14.10;7.30;;;-2.10;1.00;;;;;;5020683;28;20220;-74
2024/01/09 08:00:38;;;;;;;17.57;6.77;;;-2.20;1.00;;;;;;5022595;28;20181;-74
2024/01/09 08:03:05;;;;;;;14.00;6.27;;;-1.80;1.00;;;;;;5027948;28;20281;-76
2024/01/09 08:05:31;;;;;;;11.67;6.10;;;-2.20;1.00;;;;;;5023671;28;20213;-75
2024/01/09 08:07:56;;;;;;;11.77;6.37;;;-2.20;1.00;;;;;;5024037;28;20930;-76
2024/01/09 08:10:22;;;;;;;9.70;6.60;;;-2.50;1.00;;;;;;5027818;28;20217;-77
2024/01/09 08:12:47;;;;;;;13.03;6.47;;;-2.20;1.00;;;;;;5026653;28;20250;-76
2024/01/09 08:15:13;;;;;;;13.87;7.30;;;-2.30;1.00;;;;;;5019768;28;20667;-76
2024/01/09 08:17:38;;;;;;;15.37;6.70;;;-2.50;1.00;;;;;;5022448;28;20190;-74
2024/01/09 08:20:05;;;;;;;15.97;7.07;;;-1.80;1.00;;;;;;5019052;28;20277;-75
2024/01/09 08:22:30;;;;;;;14.60;6.00;;;-2.00;1.00;;;;;;5025436;28;20684;-76
2024/01/09 08:24:56;;;;;;;16.37;6.70;;;-1.60;1.00;;;;;;5022102;28;20540;-75
2024/01/09 08:27:21;;;;;;;13.50;6.30;;;-2.40;1.00;;;;;;5033676;28;20220;-75
2024/01/09 08:29:47;;;;;;;12.50;6.20;;;-1.70;1.00;;;;;;5024746;28;20237;-76
2024/01/09 08:32:15;;;;;;;14.27;6.57;;;-1.90;1.00;;;;;;5014771;28;20174;-75
2024/01/09 08:34:41;;;;;;;16.50;6.20;;;-1.40;1.00;;;;;;5021777;28;20185;-75
2024/01/09 08:37:06;;;;;;;13.97;7.27;;;-2.20;1.00;;;;;;5023706;28;20796;-76
2024/01/09 08:39:32;;;;;;;13.90;7.10;;;-1.70;1.00;;;;;;5019233;28;20217;-75
2024/01/09 08:41:57;;;;;;;15.83;7.57;;;-2.10;1.00;;;;;;5022633;28;20207;-76
2024/01/09 08:44:25;;;;;;;15.07;7.03;;;-1.90;1.00;;;;;;5026589;28;20191;-73
2024/01/09 08:46:51;;;;;;;15.80;7.90;;;-2.00;1.00;;;;;;5027564;28;20213;-76
2024/01/09 08:49:16;;;;;;;15.47;7.37;;;-1.40;1.00;;;;;;5033481;28;20530;-75
2024/01/09 08:51:42;;;;;;;10.60;6.57;;;-1.00;1.00;;;;;;5035376;28;20178;-75
2024/01/09 08:54:08;;;;;;;14.40;6.53;;;-1.30;1.00;;;;;;5017332;28;20256;-75
2024/01/09 08:56:33;;;;;;;19.63;7.90;;;-0.90;1.00;;;;;;5026894;28;20186;-76
2024/01/09 08:58:59;;;;;;;19.00;8.00;;;-1.10;1.00;;;;;;5016973;28;20308;-77
2024/01/09 09:01:25;;;;;;;14.77;7.10;;;-1.00;1.00;;;;;;5023403;28;20198;-77
2024/01/09 09:03:51;;;;;;;17.70;8.87;;;-0.80;1.00;;;;;;5019730;28;20196;-77
2024/01/09 09:06:17;;;;;;;15.80;8.00;;;-1.60;1.00;;;;;;5016048;28;20980;-76
2024/01/09 09:08:43;;;;;;;13.63;7.10;;;-1.00;1.00;;;;;;5030317;28;20210;-74
2024/01/09 09:11:10;;;;;;;11.07;6.13;;;-0.60;1.00;;;;;;5020612;28;20927;-76
2024/01/09 09:13:36;;;;;;;16.00;7.27;;;-0.40;1.00;;;;;;5011316;28;20186;-76
2024/01/09 09:16:01;;;;;;;15.20;7.10;;;-0.40;1.00;;;;;;5015735;28;20764;-75
2024/01/09 09:18:27;;;;;;;13.53;7.00;;;-0.90;1.00;;;;;;5019647;28;20456;-76
2024/01/09 09:20:53;;;;;;;13.67;7.10;;;-0.90;1.00;;;;;;5021479;28;20235;-76
2024/01/09 09:23:19;;;;;;;15.73;7.90;;;-0.40;1.00;;;;;;5027217;28;20695;-77
2024/01/09 09:25:44;;;;;;;12.97;7.07;;;-0.30;1.00;;;;;;5029657;28;20464;-76
2024/01/09 09:28:10;;;;;;;14.13;7.27;;;-0.30;1.00;;;;;;5035640;28;20209;-77
2024/01/09 09:30:35;;;;;;;18.70;9.00;;;0.10;1.00;;;;;;5024389;28;20225;-77
2024/01/09 09:33:01;;;;;;;13.97;6.73;;;-0.70;1.00;;;;;;5022695;28;20282;-74
2024/01/09 09:35:28;;;;;;;17.50;8.90;;;0.00;1.00;;;;;;5027756;28;20177;-75
2024/01/09 09:37:53;;;;;;;16.60;7.90;;;2.10;1.00;;;;;;5032123;28;20447;-76
2024/01/09 09:40:19;;;;;;;14.83;7.37;;;2.20;1.00;;;;;;5025775;28;20457;-76
2024/01/09 09:42:48;;;;;;;15.87;7.90;;;4.10;1.00;;;;;;5022767;28;20188;-77
2024/01/09 09:45:17;;;;;;;12.73;6.83;;;5.50;1.00;;;;;;5019373;28;20559;-77
2024/01/09 09:47:44;;;;;;;13.20;7.43;;;8.70;1.00;;;;;;5026679;28;20512;-77
2024/01/09 09:50:10;;;;;;;14.07;7.90;;;8.70;1.00;;;;;;5027377;28;20563;-77
2024/01/09 09:52:40;;;;;;;13.70;7.87;;;10.10;1.00;;;;;;5033840;28;20989;-77
2024/01/09 09:55:08;;;;;;;14.00;7.70;;;10.00;1.00;;;;;;5042008;28;20190;-78
2024/01/09 09:57:33;;;;;;;13.17;7.53;;;10.00;1.00;;;;;;5029286;28;20436;-77
2024/01/09 09:59:59;;;;;;;13.03;7.33;;;10.90;1.00;;;;;;5030591;28;20463;-78
2024/01/09 10:02:28;;;;;;;14.27;8.10;;;10.90;1.00;;;;;;5024366;28;20185;-78
2024/01/09 10:04:55;;;;;;;12.40;7.45;;;11.00;1.00;;;;;;5018519;28;20509;-78
2024/01/09 10:07:22;;;;;;;14.70;8.63;;;11.50;1.00;;;;;;5036493;28;20606;-78
2024/01/09 10:09:52;;;;;;;13.27;7.40;;;11.70;1.00;;;;;;5029339;28;20974;-77
2024/01/09 10:12:24;;;;;;;13.57;7.60;;;11.80;1.00;;;;;;5021790;28;20501;-78
2024/01/09 10:15:11;;;;;;;14.00;7.97;;;11.70;1.00;;;;;;5019671;28;20521;-78
2024/01/09 10:17:40;;;;;;;16.07;8.40;;;12.20;1.00;;;;;;5019352;28;20843;-77
2024/01/09 10:20:10;;;;;;;13.63;8.10;;;13.10;1.00;;;;;;5017546;28;20432;-77
2024/01/09 10:22:38;;;;;;;11.33;7.00;;;13.00;1.00;;;;;;5023929;28;20431;-78
2024/01/09 10:25:11;;;;;;;11.93;7.60;;;12.90;1.00;;;;;;5033244;28;20425;-77
2024/01/09 10:27:37;;;;;;;12.33;7.73;;;13.40;1.00;;;;;;5034140;28;20425;-77
2024/01/09 10:30:08;;;;;;;13.17;8.33;;;14.20;1.00;;;;;;5023135;28;20471;-77
2024/01/09 10:32:35;;;;;;;15.80;9.10;;;15.50;1.00;;;;;;5024765;28;20771;-78
2024/01/09 10:35:03;;;;;;;14.00;9.20;;;15.50;1.00;;;;;;5015230;28;20417;-78
2024/01/09 10:37:30;;;;;;;16.13;9.30;;;15.00;1.00;;;;;;5017471;28;20485;-78
2024/01/09 10:39:56;;;;;;;13.70;9.10;;;14.20;1.00;;;;;;5033645;28;20542;-77
2024/01/09 10:42:21;;;;;;;14.77;8.57;;;14.30;1.00;;;;;;5025044;28;20984;-77
2024/01/09 10:44:47;;;;;;;13.60;8.43;;;14.50;1.00;;;;;;5027000;28;20228;-77
2024/01/09 10:47:17;;;;;;;15.03;8.43;;;14.20;1.00;;;;;;5020141;28;20288;-78
2024/01/09 10:49:44;;;;;;;14.67;7.80;;;13.80;1.00;;;;;;5034119;28;20201;-77
2024/01/09 10:52:17;;;;;;;12.60;7.80;;;13.80;1.00;;;;;;5039187;28;20434;-76
2024/01/09 10:54:44;;;;;;;12.30;7.33;;;14.30;1.00;;;;;;5017969;28;20515;-77
2024/01/09 10:57:15;;;;;;;14.80;8.90;;;14.90;1.00;;;;;;5039105;28;20420;-77
2024/01/09 10:59:41;;;;;;;14.70;8.60;;;15.10;1.00;;;;;;5030859;28;20452;-77
2024/01/09 11:02:25;;;;;;;14.53;8.17;;;15.30;1.00;;;;;;5029757;28;20882;-77
2024/01/09 11:04:51;;;;;;;14.97;9.07;;;14.50;1.00;;;;;;5023311;28;20417;-77
2024/01/09 11:07:17;;;;;;;14.70;8.40;;;14.40;1.00;;;;;;5023338;28;20956;-74
2024/01/09 11:09:44;;;;;;;14.20;7.90;;;14.80;1.00;;;;;;5028334;28;20207;-77
2024/01/09 11:12:15;;;;;;;14.00;8.90;;;14.40;1.00;;;;;;5036941;28;20427;-76
2024/01/09 11:14:43;;;;;;;17.20;9.13;;;14.80;1.00;;;;;;5039022;28;20698;-77
2024/01/09 11:17:11;;;;;;;12.20;8.20;;;15.30;1.00;;;;;;5038636;28;20797;-78
2024/01/09 11:19:37;;;;;;;14.07;8.33;;;15.30;1.00;;;;;;5031627;28;20475;-77
2024/01/09 11:22:33;;;;;;;11.83;7.80;;;15.10;1.00;;;;;;5030980;28;20515;-78
2024/01/09 11:25:02;;;;;;;16.27;8.90;;;16.00;1.00;;;;;;5020286;28;20520;-78
2024/01/09 11:27:46;;;;;;;11.93;8.40;;;16.10;1.00;;;;;;5032097;28;20506;-77
2024/01/09 11:30:14;;;;;;;12.93;7.97;;;15.80;1.00;;;;;;5029532;28;20473;-77
2024/01/09 11:32:40;;;;;;;15.13;9.20;;;16.00;1.00;;;;;;5018253;28;20421;-77
2024/01/09 11:35:19;;;;;;;14.83;9.17;;;17.00;1.00;;;;;;5032131;28;20528;-77
2024/01/09 11:37:51;;;;;;;19.23;9.73;;;18.80;1.00;;;;;;5026790;28;20273;-78
2024/01/09 11:40:18;;;;;;;15.07;8.70;;;18.90;1.00;;;;;;5028635;28;20423;-77
2024/01/09 11:42:49;;;;;;;15.60;8.67;;;20.10;1.00;;;;;;5023107;28;20432;-78
2024/01/09 11:45:22;;;;;;;13.70;8.47;;;18.30;1.00;;;;;;5028300;28;20476;-76
2024/01/09 11:47:48;;;;;;;15.10;8.80;;;17.90;1.00;;;;;;5035403;28;20865;-78
2024/01/09 11:50:14;;;;;;;14.13;8.37;;;18.00;1.00;;;;;;5024479;28;20464;-75
2024/01/09 11:52:41;;;;;;;14.93;8.90;;;17.70;1.00;;;;;;5019735;28;20444;-78
2024/01/09 11:55:08;;;;;;;17.07;9.20;;;17.20;1.00;;;;;;5036436;28;20227;-76
2024/01/09 11:57:34;;;;;;;14.53;8.40;;;16.90;1.00;;;;;;5031652;28;20967;-77
2024/01/09 12:00:05;;;;;;;13.17;8.00;;;16.50;1.00;;;;;;5016151;28;20463;-76
2024/01/09 12:02:33;;;;;;;15.77;9.07;;;16.50;1.00;;;;;;5030034;28;20789;-76
2024/01/09 12:05:00;;;;;;;14.10;8.40;;;17.30;1.00;;;;;;5030834;28;20439;-77
2024/01/09 12:07:26;;;;;;;13.93;8.77;;;18.60;1.00;;;;;;5030809;28;20420;-77
2024/01/09 12:09:52;;;;;;;12.20;8.37;;;19.50;1.00;;;;;;5030221;28;20991;-77
2024/01/09 12:12:23;;;;;;;13.83;8.27;;;19.80;1.00;;;;;;5027252;28;20425;-75
2024/01/09 12:14:59;;;;;;;13.50;8.43;;;20.50;1.00;;;;;;5028381;28;20178;-77
2024/01/09 12:17:29;;;;;;;14.57;8.03;;;20.60;1.00;;;;;;5018348;28;20500;-77
2024/01/09 12:19:55;;;;;;;17.50;8.57;;;19.40;1.00;;;;;;5028547;28;20438;-77
2024/01/09 12:22:21;;;;;;;14.27;8.10;;;19.00;1.00;;;;;;5020084;28;20432;-80
2024/01/09 12:24:50;;;;;;;13.83;7.80;;;19.20;1.00;;;;;;5025761;28;20190;-80
2024/01/09 12:27:17;;;;;;;15.13;8.32;;;18.10;1.00;;;;;;5023152;28;20428;-76
2024/01/09 12:29:42;;;;;;;14.37;8.70;;;16.90;1.00;;;;;;5022326;28;20209;-75
2024/01/09 12:32:09;;;;;;;13.30;8.17;;;17.10;1.00;;;;;;5025224;28;20791;-75
2024/01/09 12:34:35;;;;;;;12.90;8.20;;;18.40;1.00;;;;;;5023025;28;20182;-75
2024/01/09 12:37:05;;;;;;;13.37;8.57;;;18.90;1.00;;;;;;5023201;28;20478;-75
2024/01/09 12:39:35;;;;;;;13.07;7.80;;;18.00;1.00;;;;;;5019740;28;20206;-75
2024/01/09 12:42:08;;;;;;;14.70;8.87;;;17.40;1.00;;;;;;5035558;28;20515;-76
2024/01/09 12:44:36;;;;;;;15.73;8.67;;;16.40;1.00;;;;;;5020321;28;20781;-76